createdAt,value
2018-05-23T00:01:10.497Z,101132.16
2018-05-23T00:03:39.869Z,101135.56
2018-05-23T00:06:08.559Z,101131.16
2018-05-23T00:08:37.141Z,101135.50
2018-05-23T00:11:06.077Z,101133.41
2018-05-23T00:13:34.401Z,101131.64
2018-05-23T00:16:02.669Z,101133.36
2018-05-23T00:18:30.948Z,101135.02
2018-05-23T00:21:00.165Z,101132.20
2018-05-23T00:23:28.453Z,101135.99
2018-05-23T00:25:56.753Z,101137.73
2018-05-23T00:28:25.319Z,101141.46
2018-05-23T00:30:53.696Z,101149.05
2018-05-23T00:33:22.080Z,101142.88
2018-05-23T00:35:51.450Z,101138.75
2018-05-23T00:38:19.756Z,101141.05
2018-05-23T00:40:48.083Z,101147.00
2018-05-23T00:43:16.436Z,101140.97
2018-05-23T00:45:44.807Z,101137.76
2018-05-23T00:48:13.835Z,101137.25
2018-05-23T00:50:42.118Z,101137.11
2018-05-23T00:53:10.395Z,101129.42
2018-05-23T00:55:38.681Z,101135.80
2018-05-23T00:58:07.751Z,101127.47
2018-05-23T01:00:36.270Z,101131.19
2018-05-23T01:03:05.431Z,101126.41
2018-05-23T01:05:33.723Z,101138.75
2018-05-23T01:08:02.014Z,101134.78
2018-05-23T01:10:30.271Z,101130.41
2018-05-23T01:12:58.671Z,101132.98
2018-05-23T01:15:27.062Z,101133.47
2018-05-23T01:17:55.358Z,101127.95
2018-05-23T01:20:23.731Z,101133.82
2018-05-23T01:22:53.080Z,101127.81
2018-05-23T01:25:21.471Z,101137.91
2018-05-23T01:27:49.849Z,101132.42
2018-05-23T01:30:18.131Z,101132.94
2018-05-23T01:32:46.581Z,101136.98
2018-05-23T01:35:14.921Z,101133.92
2018-05-23T01:37:43.322Z,101135.94
2018-05-23T01:40:11.597Z,101131.94
2018-05-23T01:42:40.699Z,101126.37
2018-05-23T01:45:09.727Z,101124.17
2018-05-23T01:47:38.115Z,101128.22
2018-05-23T01:50:06.422Z,101132.08
2018-05-23T01:52:34.917Z,101128.22
2018-05-23T01:55:03.206Z,101124.43
2018-05-23T01:57:31.684Z,101125.50
2018-05-23T02:00:00.703Z,101125.95
2018-05-23T02:02:28.993Z,101137.32
2018-05-23T02:04:58.692Z,101135.13
2018-05-23T02:07:27.096Z,101142.44
2018-05-23T02:09:56.162Z,101136.76
2018-05-23T02:12:24.432Z,101138.87
2018-05-23T02:14:52.698Z,101151.33
2018-05-23T02:17:22.757Z,101146.24
2018-05-23T02:19:51.092Z,101153.96
2018-05-23T02:22:20.146Z,101152.73
2018-05-23T02:24:48.435Z,101159.39
2018-05-23T02:27:16.721Z,101155.03
2018-05-23T02:29:45.093Z,101156.42
2018-05-23T02:32:13.374Z,101151.73
2018-05-23T02:34:42.433Z,101153.49
2018-05-23T02:37:10.714Z,101153.27
2018-05-23T02:39:38.977Z,101148.53
2018-05-23T02:42:07.298Z,101150.50
2018-05-23T02:44:35.636Z,101146.75
2018-05-23T02:47:03.977Z,101150.48
2018-05-23T02:49:32.249Z,101153.88
2018-05-23T02:52:00.526Z,101151.78
2018-05-23T02:54:28.819Z,101159.84
2018-05-23T02:56:57.223Z,101160.62
2018-05-23T02:59:25.510Z,101159.03
2018-05-23T03:01:53.795Z,101163.90
2018-05-23T03:04:22.116Z,101153.13
2018-05-23T03:06:50.470Z,101150.62
2018-05-23T03:09:18.769Z,101151.59
2018-05-23T03:11:47.157Z,101155.09
2018-05-23T03:14:15.411Z,101153.91
2018-05-23T03:16:43.685Z,101150.91
2018-05-23T03:19:11.974Z,101157.92
2018-05-23T03:21:40.258Z,101155.70
2018-05-23T03:24:08.596Z,101165.69
2018-05-23T03:26:37.653Z,101166.57
2018-05-23T03:29:05.960Z,101162.20
2018-05-23T03:31:34.247Z,101168.41
2018-05-23T03:34:02.594Z,101170.58
2018-05-23T03:36:30.875Z,101175.42
2018-05-23T03:38:59.922Z,101183.30
2018-05-23T03:41:28.304Z,101185.12
2018-05-23T03:43:56.623Z,101182.08
2018-05-23T03:46:24.970Z,101187.33
2018-05-23T03:48:53.248Z,101183.83
2018-05-23T03:51:21.519Z,101188.19
2018-05-23T03:53:50.566Z,101192.81
2018-05-23T03:56:18.870Z,101193.32
2018-05-23T03:58:47.239Z,101195.41
2018-05-23T04:01:33.220Z,101200.61
2018-05-23T04:04:19.896Z,101189.64
2018-05-23T04:10:11.158Z,101191.23
2018-05-23T04:12:39.480Z,101193.73
2018-05-23T04:15:07.815Z,101194.92
2018-05-23T04:17:36.088Z,101200.97
2018-05-23T04:20:05.227Z,101200.69
2018-05-23T04:22:33.711Z,101203.58
2018-05-23T04:25:02.016Z,101205.75
2018-05-23T04:27:31.032Z,101206.53
2018-05-23T04:29:59.388Z,101200.81
2018-05-23T04:32:28.486Z,101206.84
2018-05-23T04:34:56.762Z,101212.42
2018-05-23T04:37:25.031Z,101207.98
2018-05-23T04:39:53.321Z,101214.92
2018-05-23T04:42:21.593Z,101216.06
2018-05-23T04:44:49.864Z,101222.32
2018-05-23T04:47:18.133Z,101225.30
2018-05-23T04:49:47.199Z,101221.66
2018-05-23T04:52:15.461Z,101225.42
2018-05-23T04:54:43.746Z,101232.44
2018-05-23T04:57:12.787Z,101230.24
2018-05-23T04:59:41.136Z,101239.84
2018-05-23T05:02:09.426Z,101236.35
2018-05-23T05:04:38.561Z,101242.36
2018-05-23T05:07:06.838Z,101250.52
2018-05-23T05:09:37.795Z,101246.55
2018-05-23T05:12:08.992Z,101261.30
2018-05-23T05:14:38.043Z,101259.56
2018-05-23T05:17:06.995Z,101268.88
2018-05-23T05:19:37.572Z,101272.11
2018-05-23T05:22:08.920Z,101275.02
2018-05-23T05:24:42.831Z,101275.39
2018-05-23T05:27:14.168Z,101280.19
2018-05-23T05:29:43.106Z,101284.79
2018-05-23T05:32:13.194Z,101291.85
2018-05-23T05:34:41.459Z,101290.69
2018-05-23T05:37:10.543Z,101297.20
2018-05-23T05:39:38.901Z,101300.20
2018-05-23T05:42:07.277Z,101299.83
2018-05-23T05:44:35.558Z,101301.75
2018-05-23T05:47:03.964Z,101304.34
2018-05-23T05:49:32.858Z,101305.64
2018-05-23T05:52:01.142Z,101310.81
2018-05-23T05:54:30.181Z,101312.00
2018-05-23T05:56:58.533Z,101311.30
2018-05-23T05:59:27.660Z,101318.80
2018-05-23T06:01:55.954Z,101315.58
2018-05-23T06:04:24.229Z,101323.63
2018-05-23T06:06:52.529Z,101333.66
2018-05-23T06:09:20.787Z,101343.58
2018-05-23T06:11:49.856Z,101343.69
2018-05-23T06:14:18.314Z,101345.30
2018-05-23T06:16:46.577Z,101355.31
2018-05-23T06:19:14.888Z,101354.97
2018-05-23T06:21:44.036Z,101350.11
2018-05-23T06:24:12.400Z,101345.73
2018-05-23T06:26:41.509Z,101342.52
2018-05-23T06:29:09.838Z,101347.98
2018-05-23T06:31:38.101Z,101349.95
2018-05-23T06:34:06.380Z,101355.28
2018-05-23T06:36:35.510Z,101350.04
2018-05-23T06:39:03.792Z,101358.23
2018-05-23T06:41:32.056Z,101358.92
2018-05-23T06:44:01.087Z,101355.41
2018-05-23T06:46:29.466Z,101359.82
2018-05-23T06:48:57.781Z,101363.27
2018-05-23T06:51:26.069Z,101359.27
2018-05-23T06:53:54.347Z,101367.80
2018-05-23T06:56:22.639Z,101369.95
2018-05-23T06:58:50.911Z,101370.95
2018-05-23T07:01:19.971Z,101369.49
2018-05-23T07:03:48.332Z,101370.16
2018-05-23T07:06:16.632Z,101366.50
2018-05-23T07:08:44.967Z,101371.54
2018-05-23T07:11:13.262Z,101371.66
2018-05-23T07:13:41.553Z,101375.45
2018-05-23T07:16:09.839Z,101376.77
2018-05-23T07:18:38.139Z,101375.47
2018-05-23T07:21:06.443Z,101379.00
2018-05-23T07:23:35.485Z,101375.55
2018-05-23T07:26:03.787Z,101381.49
2018-05-23T07:28:32.081Z,101384.77
2018-05-23T07:31:00.467Z,101382.43
2018-05-23T07:33:28.805Z,101383.92
2018-05-23T07:35:57.870Z,101381.15
2018-05-23T07:38:26.200Z,101379.97
2018-05-23T07:40:54.442Z,101377.14
2018-05-23T07:43:22.732Z,101382.01
2018-05-23T07:45:51.016Z,101384.99
2018-05-23T07:48:19.279Z,101379.76
2018-05-23T07:50:48.314Z,101378.77
2018-05-23T07:53:16.592Z,101382.17
2018-05-23T07:55:44.871Z,101379.69
2018-05-23T07:58:13.185Z,101377.74
2018-05-23T08:00:41.466Z,101379.21
2018-05-23T08:03:09.761Z,101381.50
2018-05-23T08:05:38.063Z,101380.42
2018-05-23T08:08:09.925Z,101379.57
2018-05-23T08:10:38.939Z,101383.42
2018-05-23T08:13:07.489Z,101387.20
2018-05-23T08:15:35.790Z,101390.66
2018-05-23T08:18:04.843Z,101396.23
2018-05-23T08:20:33.111Z,101393.42
2018-05-23T08:23:01.489Z,101397.06
2018-05-23T08:25:29.767Z,101395.46
2018-05-23T08:27:58.864Z,101398.29
2018-05-23T08:30:27.196Z,101396.13
2018-05-23T08:32:55.481Z,101399.91
2018-05-23T08:35:23.735Z,101401.02
2018-05-23T08:37:52.056Z,101404.88
2018-05-23T08:40:20.364Z,101412.48
2018-05-23T08:42:48.641Z,101408.39
2018-05-23T08:45:16.944Z,101413.78
2018-05-23T08:47:45.217Z,101402.85
2018-05-23T08:50:13.480Z,101410.43
2018-05-23T08:52:42.562Z,101409.54
2018-05-23T08:55:10.859Z,101415.12
2018-05-23T08:57:39.903Z,101414.69
2018-05-23T09:00:08.216Z,101416.56
2018-05-23T09:02:37.427Z,101413.44
2018-05-23T09:05:05.791Z,101409.87
2018-05-23T09:07:34.041Z,101413.16
2018-05-23T09:10:02.350Z,101412.97
2018-05-23T09:12:30.743Z,101417.08
2018-05-23T09:14:58.915Z,101414.71
2018-05-23T09:17:27.303Z,101415.94
2018-05-23T09:19:56.384Z,101417.98
2018-05-23T09:22:24.669Z,101425.05
2018-05-23T09:24:52.938Z,101421.53
2018-05-23T09:27:21.981Z,101422.93
2018-05-23T09:29:50.243Z,101425.22
2018-05-23T09:32:20.545Z,101421.77
2018-05-23T09:34:48.869Z,101429.08
2018-05-23T09:37:17.922Z,101430.02
2018-05-23T09:39:46.191Z,101430.86
2018-05-23T09:42:14.464Z,101436.08
2018-05-23T09:44:43.530Z,101437.98
2018-05-23T09:47:11.868Z,101437.63
2018-05-23T09:49:40.132Z,101435.34
2018-05-23T09:52:08.391Z,101444.39
2018-05-23T09:54:36.705Z,101439.80
2018-05-23T09:57:04.969Z,101443.91
2018-05-23T09:59:33.264Z,101443.63
2018-05-23T10:02:01.560Z,101442.38
2018-05-23T10:04:29.811Z,101447.36
2018-05-23T10:06:58.087Z,101446.63
2018-05-23T10:09:26.369Z,101455.53
2018-05-23T10:11:55.403Z,101450.75
2018-05-23T10:14:23.705Z,101454.15
2018-05-23T10:16:52.023Z,101451.30
2018-05-23T10:19:20.267Z,101457.42
2018-05-23T10:21:48.523Z,101462.05
2018-05-23T10:24:16.804Z,101461.69
2018-05-23T10:26:45.116Z,101463.47
2018-05-23T10:29:14.158Z,101466.52
2018-05-23T10:31:42.464Z,101461.72
2018-05-23T10:34:11.497Z,101466.38
2018-05-23T10:36:39.773Z,101463.36
2018-05-23T10:39:08.203Z,101471.09
2018-05-23T10:41:36.406Z,101466.02
2018-05-23T10:44:05.458Z,101470.27
2018-05-23T10:46:33.750Z,101468.61
2018-05-23T10:49:02.007Z,101472.28
2018-05-23T10:51:30.273Z,101470.86
2018-05-23T10:53:59.327Z,101471.20
2018-05-23T10:56:27.620Z,101478.00
2018-05-23T10:58:55.896Z,101497.19
2018-05-23T11:01:24.189Z,101490.73
2018-05-23T11:03:52.479Z,101495.08
2018-05-23T11:06:20.744Z,101504.68
2018-05-23T11:08:49.801Z,101513.48
2018-05-23T11:11:18.075Z,101528.30
2018-05-23T11:13:46.365Z,101521.66
2018-05-23T11:16:14.654Z,101519.38
2018-05-23T11:18:43.019Z,101521.27
2018-05-23T11:21:12.039Z,101527.12
2018-05-23T11:23:40.297Z,101526.74
2018-05-23T11:26:09.330Z,101524.69
2018-05-23T11:28:37.791Z,101525.45
2018-05-23T11:31:06.109Z,101522.44
2018-05-23T11:33:34.519Z,101524.95
2018-05-23T11:36:02.819Z,101523.03
2018-05-23T11:38:31.139Z,101523.27
2018-05-23T11:40:59.433Z,101530.19
2018-05-23T11:43:27.734Z,101535.84
2018-05-23T11:45:56.022Z,101534.23
2018-05-23T11:48:24.325Z,101535.44
2018-05-23T11:50:53.387Z,101538.16
2018-05-23T11:53:21.639Z,101553.39
2018-05-23T11:55:49.925Z,101541.18
2018-05-23T11:58:18.953Z,101540.14
2018-05-23T12:00:47.333Z,101538.66
2018-05-23T12:03:16.357Z,101541.52
2018-05-23T12:05:44.720Z,101539.56
2018-05-23T12:08:13.014Z,101538.47
2018-05-23T12:10:42.213Z,101542.20
2018-05-23T12:13:10.444Z,101542.05
2018-05-23T12:15:38.824Z,101539.64
2018-05-23T12:18:07.967Z,101539.05
2018-05-23T12:20:36.222Z,101540.32
2018-05-23T12:23:04.492Z,101540.55
2018-05-23T12:25:34.778Z,101541.42
2018-05-23T12:28:03.054Z,101540.88
2018-05-23T12:30:31.325Z,101539.17
2018-05-23T12:32:59.599Z,101535.41
2018-05-23T12:35:28.599Z,101532.94
2018-05-23T12:37:57.684Z,101535.61
2018-05-23T12:40:26.709Z,101532.28
2018-05-23T12:42:54.957Z,101529.41
2018-05-23T12:45:23.241Z,101532.97
2018-05-23T12:47:51.500Z,101524.81
2018-05-23T12:50:19.781Z,101527.64
2018-05-23T12:52:48.814Z,101526.51
2018-05-23T12:55:17.096Z,101527.67
2018-05-23T12:57:46.263Z,101526.36
2018-05-23T13:00:14.569Z,101523.30
2018-05-23T13:02:42.911Z,101519.11
2018-05-23T13:05:11.903Z,101524.34
2018-05-23T13:07:40.226Z,101522.06
2018-05-23T13:10:09.519Z,101518.91
2018-05-23T13:12:37.834Z,101514.72
2018-05-23T13:15:06.873Z,101510.28
2018-05-23T13:17:35.196Z,101506.88
2018-05-23T13:20:03.473Z,101501.26
2018-05-23T13:22:32.598Z,101498.70
2018-05-23T13:25:00.855Z,101496.31
2018-05-23T13:27:29.883Z,101495.02
2018-05-23T13:29:59.016Z,101487.13
2018-05-23T13:32:27.270Z,101490.50
2018-05-23T13:34:56.316Z,101479.16
2018-05-23T13:37:24.641Z,101470.27
2018-05-23T13:39:53.026Z,101468.84
2018-05-23T13:42:21.287Z,101463.70
2018-05-23T13:44:50.875Z,101454.79
2018-05-23T13:47:19.282Z,101454.25
2018-05-23T13:49:47.674Z,101448.98
2018-05-23T13:52:16.788Z,101444.59
2018-05-23T13:54:45.160Z,101437.80
2018-05-23T13:57:14.216Z,101427.95
2018-05-23T13:59:42.504Z,101430.02
2018-05-23T14:02:10.771Z,101431.94
2018-05-23T14:04:40.451Z,101423.99
2018-05-23T14:07:08.810Z,101417.64
2018-05-23T14:09:37.107Z,101410.21
2018-05-23T14:12:05.420Z,101410.70
2018-05-23T14:14:33.700Z,101409.77
2018-05-23T14:17:01.953Z,101407.42
2018-05-23T14:19:30.246Z,101413.20
2018-05-23T14:21:58.519Z,101410.09
2018-05-23T14:24:26.785Z,101399.27
2018-05-23T14:26:55.068Z,101412.53
2018-05-23T14:29:24.849Z,101399.40
2018-05-23T14:31:53.117Z,101403.84
2018-05-23T14:34:22.149Z,101407.83
2018-05-23T14:36:50.413Z,101411.59
2018-05-23T14:39:18.699Z,101405.88
2018-05-23T14:41:47.760Z,101407.66
2018-05-23T14:44:16.052Z,101411.64
2018-05-23T14:46:44.313Z,101409.91
2018-05-23T14:49:12.672Z,101411.25
2018-05-23T14:51:41.718Z,101411.72
2018-05-23T14:54:09.986Z,101415.23
2018-05-23T14:56:38.258Z,101405.74
2018-05-23T14:59:07.310Z,101406.67
2018-05-23T15:01:35.613Z,101409.49
2018-05-23T15:04:03.903Z,101404.06
2018-05-23T15:06:32.197Z,101399.92
2018-05-23T15:09:00.542Z,101406.40
2018-05-23T15:11:28.805Z,101400.58
2018-05-23T15:13:57.087Z,101400.87
2018-05-23T15:16:26.124Z,101394.31
2018-05-23T15:18:54.413Z,101403.39
2018-05-23T15:21:23.441Z,101395.95
2018-05-23T15:23:51.691Z,101399.03
2018-05-23T15:26:20.716Z,101409.78
2018-05-23T15:28:49.770Z,101405.36
2018-05-23T15:31:18.064Z,101401.16
2018-05-23T15:33:46.339Z,101406.02
2018-05-23T15:36:14.606Z,101400.84
2018-05-23T15:38:42.902Z,101399.10
2018-05-23T15:41:11.225Z,101391.63
2018-05-23T15:43:39.519Z,101391.06
2018-05-23T15:46:07.800Z,101385.22
2018-05-23T15:48:36.639Z,101390.77
2018-05-23T15:51:05.010Z,101397.81
2018-05-23T15:53:33.184Z,101389.05
2018-05-23T15:56:01.444Z,101396.41
2018-05-23T15:58:29.727Z,101400.98
2018-05-23T16:00:58.127Z,101402.11
2018-05-23T16:03:26.377Z,101398.43
2018-05-23T16:05:54.697Z,101407.69
2018-05-23T16:08:22.974Z,101400.55
2018-05-23T16:10:52.018Z,101410.48
2018-05-23T16:13:20.310Z,101408.03
2018-05-23T16:15:48.592Z,101404.97
2018-05-23T16:18:16.837Z,101409.94
2018-05-23T16:20:45.107Z,101416.19
2018-05-23T16:23:14.172Z,101410.61
2018-05-23T16:25:42.450Z,101408.50
2018-05-23T16:28:11.480Z,101407.39
2018-05-23T16:30:39.762Z,101403.63
2018-05-23T16:33:08.031Z,101409.64
2018-05-23T16:35:37.094Z,101412.69
2018-05-23T16:38:05.392Z,101418.01
2018-05-23T16:40:33.654Z,101413.89
2018-05-23T16:43:01.943Z,101411.53
2018-05-23T16:45:30.218Z,101410.16
2018-05-23T16:47:58.488Z,101405.17
2018-05-23T16:50:27.556Z,101401.80
2018-05-23T16:52:55.827Z,101403.94
2018-05-23T16:55:24.098Z,101399.09
2018-05-23T16:57:52.368Z,101401.75
2018-05-23T17:00:21.490Z,101402.43
2018-05-23T17:02:50.598Z,101406.00
2018-05-23T17:05:19.668Z,101407.66
2018-05-23T17:07:47.920Z,101408.02
2018-05-23T17:10:16.209Z,101406.73
2018-05-23T17:15:21.627Z,101415.34
2018-05-23T17:17:50.734Z,101421.81
2018-05-23T17:20:18.989Z,101421.73
2018-05-23T17:22:48.476Z,101427.55
2018-05-23T17:25:17.608Z,101430.48
2018-05-23T17:27:46.881Z,101429.66
2018-05-23T17:30:24.520Z,101424.39
2018-05-23T17:32:55.551Z,101431.64
2018-05-23T17:35:24.371Z,101430.13
2018-05-23T17:37:53.220Z,101424.80
2018-05-23T17:40:21.664Z,101429.13
2018-05-23T17:42:49.983Z,101420.20
2018-05-23T17:45:18.293Z,101421.34
2018-05-23T17:47:46.566Z,101421.27
2018-05-23T17:50:14.836Z,101421.88
2018-05-23T17:52:43.172Z,101423.77
2018-05-23T17:55:11.466Z,101414.96
2018-05-23T17:57:39.835Z,101418.00
2018-05-23T18:00:08.180Z,101415.04
2018-05-23T18:02:36.463Z,101417.73
2018-05-23T18:05:04.752Z,101420.45
2018-05-23T18:07:33.561Z,101428.05
2018-05-23T18:10:02.994Z,101421.62
2018-05-23T18:12:31.433Z,101424.25
2018-05-23T18:14:59.780Z,101424.60
2018-05-23T18:17:28.833Z,101428.86
2018-05-23T18:19:57.198Z,101434.72
2018-05-23T18:22:26.456Z,101430.40
2018-05-23T18:24:54.957Z,101430.91
2018-05-23T18:27:23.297Z,101428.27
2018-05-23T18:29:51.911Z,101429.86
2018-05-23T18:32:20.247Z,101432.47
2018-05-23T18:34:48.663Z,101431.34
2018-05-23T18:37:17.701Z,101431.27
2018-05-23T18:39:47.469Z,101434.75
2018-05-23T18:42:15.771Z,101438.81
2018-05-23T18:44:44.151Z,101432.02
2018-05-23T18:47:13.071Z,101433.65
2018-05-23T18:49:41.417Z,101433.67
2018-05-23T18:52:11.658Z,101433.26
2018-05-23T18:54:41.227Z,101432.39
2018-05-23T18:57:10.803Z,101435.39
2018-05-23T18:59:39.030Z,101436.31
2018-05-23T19:02:08.162Z,101444.36
2018-05-23T19:04:41.344Z,101444.45
2018-05-23T19:07:12.334Z,101450.55
2018-05-23T19:09:42.528Z,101446.55
2018-05-23T19:12:12.361Z,101447.16
2018-05-23T19:14:41.026Z,101454.66
2018-05-23T19:17:09.519Z,101459.34
2018-05-23T19:19:38.641Z,101457.98
2018-05-23T19:22:08.006Z,101455.98
2018-05-23T19:24:37.453Z,101457.95
2018-05-23T19:27:08.308Z,101457.95
2018-05-23T19:29:36.693Z,101466.86
2018-05-23T19:32:06.424Z,101469.92
2018-05-23T19:34:36.010Z,101476.66
2018-05-23T19:37:06.486Z,101478.42
2018-05-23T19:39:39.447Z,101481.42
2018-05-23T19:42:10.191Z,101493.61
2018-05-23T19:44:41.190Z,101489.94
2018-05-23T19:47:11.676Z,101488.98
2018-05-23T19:49:40.978Z,101493.02
2018-05-23T19:52:09.239Z,101496.17
2018-05-23T19:54:37.598Z,101500.08
2018-05-23T19:57:05.868Z,101501.30
2018-05-23T19:59:34.890Z,101506.86
2018-05-23T20:02:03.186Z,101501.31
2018-05-23T20:04:31.466Z,101509.92
2018-05-23T20:07:00.483Z,101507.70
2018-05-23T20:09:28.744Z,101512.45
2018-05-23T20:11:57.762Z,101515.52
2018-05-23T20:14:26.036Z,101515.61
2018-05-23T20:16:54.390Z,101517.83
2018-05-23T20:19:22.653Z,101516.22
2018-05-23T20:21:51.047Z,101512.95
2018-05-23T20:24:19.319Z,101520.88
2018-05-23T20:26:48.815Z,101524.29
2018-05-23T20:29:17.739Z,101520.91
2018-05-23T20:31:49.166Z,101516.42
2018-05-23T20:34:19.986Z,101523.86
2018-05-23T20:36:50.183Z,101520.48
2018-05-23T20:39:19.215Z,101517.05
2018-05-23T20:41:48.406Z,101516.84
2018-05-23T20:44:18.328Z,101519.19
2018-05-23T20:46:47.350Z,101516.80
2018-05-23T20:49:16.264Z,101516.28
2018-05-23T20:51:44.560Z,101514.06
2018-05-23T20:54:13.390Z,101514.19
2018-05-23T20:56:41.804Z,101522.05
2018-05-23T20:59:11.663Z,101517.19
2018-05-23T21:01:41.322Z,101523.86
2018-05-23T21:04:09.611Z,101524.52
2018-05-23T21:06:38.356Z,101523.10
2018-05-23T21:09:06.695Z,101521.22
2018-05-23T21:11:38.376Z,101527.83
2018-05-23T21:14:07.713Z,101527.84
2018-05-23T21:16:36.204Z,101527.20
2018-05-23T21:19:05.567Z,101533.67
2018-05-23T21:21:34.588Z,101531.69
2018-05-23T21:24:02.838Z,101538.42
2018-05-23T21:26:31.100Z,101542.06
2018-05-23T21:29:00.131Z,101539.42
2018-05-23T21:31:28.459Z,101544.26
2018-05-23T21:33:56.742Z,101545.15
2018-05-23T21:36:25.773Z,101550.46
2018-05-23T21:38:54.022Z,101545.86
2018-05-23T21:41:22.432Z,101553.33
2018-05-23T21:43:51.466Z,101546.65
2018-05-23T21:46:19.715Z,101543.20
2018-05-23T21:48:48.025Z,101545.64
2018-05-23T21:51:17.054Z,101544.63
2018-05-23T21:53:45.331Z,101549.09
2018-05-23T21:56:14.382Z,101548.84
2018-05-23T21:58:42.646Z,101542.64
2018-05-23T22:01:13.862Z,101545.98
2018-05-23T22:03:42.151Z,101547.00
2018-05-23T22:06:10.478Z,101541.96
2018-05-23T22:08:38.755Z,101547.25
2018-05-23T22:11:07.130Z,101542.95
2018-05-23T22:13:36.289Z,101542.85
2018-05-23T22:16:04.620Z,101544.61
2018-05-23T22:18:33.453Z,101540.77
2018-05-23T22:21:02.465Z,101537.54
2018-05-23T22:23:30.764Z,101541.69
2018-05-23T22:25:59.192Z,101528.76
2018-05-23T22:28:27.811Z,101532.41
2018-05-23T22:30:56.897Z,101528.36
2018-05-23T22:33:25.198Z,101530.63
2018-05-23T22:35:53.448Z,101532.08
2018-05-23T22:38:21.715Z,101533.34
2018-05-23T22:40:50.814Z,101529.16
2018-05-23T22:43:19.849Z,101523.88
2018-05-23T22:45:48.134Z,101529.22
2018-05-23T22:48:17.200Z,101530.82
2018-05-23T22:50:45.483Z,101528.30
2018-05-23T22:53:13.910Z,101527.30
2018-05-23T22:55:42.508Z,101523.94
2018-05-23T22:58:11.071Z,101528.17
2018-05-23T23:00:40.949Z,101525.66
2018-05-23T23:03:10.400Z,101524.59
2018-05-23T23:05:38.735Z,101524.52
2018-05-23T23:08:08.015Z,101526.70
2018-05-23T23:10:37.108Z,101529.03
2018-05-23T23:13:05.730Z,101531.78
2018-05-23T23:15:34.757Z,101525.19
2018-05-23T23:18:03.941Z,101525.73
2018-05-23T23:20:32.638Z,101535.55
2018-05-23T23:23:01.589Z,101540.79
2018-05-23T23:25:30.709Z,101535.47
2018-05-23T23:27:59.046Z,101540.66
2018-05-23T23:30:27.309Z,101537.03
2018-05-23T23:32:55.690Z,101544.14
2018-05-23T23:35:23.970Z,101539.49
2018-05-23T23:37:52.982Z,101538.09
2018-05-23T23:40:21.249Z,101538.43
2018-05-23T23:42:50.281Z,101541.38
2018-05-23T23:45:18.543Z,101545.59
2018-05-23T23:47:47.590Z,101537.45
2018-05-23T23:50:15.875Z,101539.79
2018-05-23T23:52:44.165Z,101533.25
2018-05-23T23:55:12.416Z,101534.90
2018-05-23T23:57:40.682Z,101533.98
